createdAt,value
2018-07-13T00:00:43.639Z,62.70
2018-07-13T00:03:12.681Z,62.90
2018-07-13T00:05:41.708Z,63.90
2018-07-13T00:08:10.783Z,63.30
2018-07-13T00:10:39.890Z,63.50
2018-07-13T00:13:09.157Z,63.70
2018-07-13T00:15:43.503Z,64.20
2018-07-13T00:18:12.784Z,64.40
2018-07-13T00:20:42.102Z,64.90
2018-07-13T00:23:11.128Z,65.10
2018-07-13T00:25:40.467Z,65.50
2018-07-13T00:28:09.621Z,65.90
2018-07-13T00:30:39.276Z,65.70
2018-07-13T00:33:09.277Z,65.80
2018-07-13T00:38:08.093Z,66.00
2018-07-13T00:40:37.281Z,66.30
2018-07-13T00:43:06.615Z,66.50
2018-07-13T00:45:35.744Z,66.60
2018-07-13T00:48:05.552Z,66.80
2018-07-13T00:50:35.115Z,66.90
2018-07-13T00:53:04.725Z,67.00
2018-07-13T00:55:34.052Z,67.10
2018-07-13T00:58:03.163Z,67.00
2018-07-13T01:00:33.579Z,67.00
2018-07-13T01:03:04.508Z,67.00
2018-07-13T01:05:34.058Z,67.20
2018-07-13T01:08:03.255Z,67.30
2018-07-13T01:10:32.754Z,67.20
2018-07-13T01:13:02.048Z,67.30
2018-07-13T01:15:31.453Z,67.40
2018-07-13T01:18:01.515Z,67.50
2018-07-13T01:20:30.452Z,67.60
2018-07-13T01:22:59.600Z,67.80
2018-07-13T01:27:57.871Z,67.80
2018-07-13T01:30:27.187Z,67.90
2018-07-13T01:32:56.255Z,68.10
2018-07-13T01:35:25.785Z,68.10
2018-07-13T01:37:54.963Z,68.10
2018-07-13T01:40:24.176Z,68.20
2018-07-13T01:42:53.467Z,68.20
2018-07-13T01:45:22.988Z,68.30
2018-07-13T01:47:52.864Z,68.50
2018-07-13T01:50:22.383Z,68.70
2018-07-13T01:52:51.724Z,68.90
2018-07-13T01:55:20.549Z,69.10
2018-07-13T01:57:49.578Z,69.20
2018-07-13T02:00:19.494Z,69.30
2018-07-13T02:02:48.992Z,69.50
2018-07-13T02:05:19.898Z,69.70
2018-07-13T02:07:48.835Z,69.70
2018-07-13T02:10:17.988Z,70.10
2018-07-13T02:12:47.452Z,70.10
2018-07-13T02:15:16.580Z,70.20
2018-07-13T02:17:45.670Z,70.30
2018-07-13T02:22:43.449Z,70.80
2018-07-13T02:30:10.042Z,71.60
2018-07-13T02:32:39.038Z,71.90
2018-07-13T02:35:07.831Z,71.90
2018-07-13T02:37:36.920Z,72.10
2018-07-13T02:40:06.593Z,72.30
2018-07-13T02:42:35.964Z,72.50
2018-07-13T02:45:04.884Z,72.60
2018-07-13T02:47:33.900Z,72.70
2018-07-13T02:50:03.268Z,72.80
2018-07-13T02:52:32.457Z,73.10
2018-07-13T02:55:02.391Z,73.20
2018-07-13T02:57:31.806Z,73.30
2018-07-13T03:00:02.039Z,73.40
2018-07-13T03:02:31.706Z,73.40
2018-07-13T03:05:00.688Z,73.70
2018-07-13T03:07:29.631Z,73.80
2018-07-13T03:09:58.550Z,73.90
2018-07-13T03:12:26.800Z,73.80
2018-07-13T03:14:56.257Z,73.90
2018-07-13T03:17:26.440Z,74.00
2018-07-13T03:19:56.724Z,74.20
2018-07-13T03:22:26.601Z,74.10
2018-07-13T03:24:55.718Z,74.20
2018-07-13T03:27:25.410Z,74.30
2018-07-13T03:29:54.683Z,74.30
2018-07-13T03:32:24.126Z,74.40
2018-07-13T03:34:53.487Z,74.30
2018-07-13T03:37:21.722Z,74.30
2018-07-13T03:39:50.516Z,74.40
2018-07-13T03:42:19.488Z,74.20
2018-07-13T03:44:48.832Z,74.20
2018-07-13T03:47:18.057Z,74.00
2018-07-13T03:49:47.420Z,74.10
2018-07-13T03:52:16.609Z,74.00
2018-07-13T03:54:46.003Z,73.90
2018-07-13T03:57:15.097Z,73.90
2018-07-13T03:59:44.694Z,73.60
2018-07-13T04:02:13.117Z,73.70
2018-07-13T04:04:42.184Z,73.70
2018-07-13T04:07:11.609Z,73.70
2018-07-13T04:09:40.736Z,73.80
2018-07-13T04:12:09.701Z,73.60
2018-07-13T04:14:39.174Z,73.50
2018-07-13T04:17:08.388Z,73.80
2018-07-13T04:19:37.483Z,74.20
2018-07-13T04:22:06.852Z,74.30
2018-07-13T04:24:36.683Z,74.70
2018-07-13T04:27:05.707Z,75.20
2018-07-13T04:29:36.231Z,75.50
2018-07-13T04:32:05.343Z,75.70
2018-07-13T04:34:34.600Z,75.70
2018-07-13T04:37:04.241Z,75.70
2018-07-13T04:39:33.570Z,75.90
2018-07-13T04:42:02.652Z,76.00
2018-07-13T04:44:32.042Z,77.10
2018-07-13T04:47:02.273Z,76.50
2018-07-13T04:49:32.001Z,76.60
2018-07-13T04:52:02.064Z,76.70
2018-07-13T04:54:31.964Z,76.90
2018-07-13T04:59:30.784Z,77.30
2018-07-13T05:02:00.365Z,77.40
2018-07-13T05:04:29.725Z,77.80
2018-07-13T05:06:58.811Z,77.80
2018-07-13T05:09:28.938Z,77.80
2018-07-13T05:11:58.995Z,78.10
2018-07-13T05:14:28.340Z,78.10
2018-07-13T05:16:57.229Z,78.10
2018-07-13T05:19:26.834Z,78.20
2018-07-13T05:21:56.799Z,78.30
2018-07-13T05:24:26.168Z,78.50
2018-07-13T05:26:56.181Z,78.40
2018-07-13T05:29:26.262Z,78.30
2018-07-13T05:31:56.441Z,78.10
2018-07-13T05:34:26.411Z,78.20
2018-07-13T05:36:55.745Z,78.10
2018-07-13T05:39:25.028Z,77.70
2018-07-13T05:41:54.699Z,77.60
2018-07-13T05:44:24.405Z,77.60
2018-07-13T05:49:23.151Z,78.20
2018-07-13T05:51:52.464Z,77.50
2018-07-13T05:54:21.714Z,77.20
2018-07-13T05:56:51.204Z,77.00
2018-07-13T05:59:20.982Z,76.70
2018-07-13T06:01:50.539Z,76.50
2018-07-13T06:04:19.726Z,75.90
2018-07-13T06:06:49.247Z,75.40
2018-07-13T06:09:18.961Z,75.40
2018-07-13T06:11:48.891Z,75.00
2018-07-13T06:16:47.222Z,74.10
2018-07-13T06:19:16.385Z,73.60
2018-07-13T06:24:14.838Z,72.30
2018-07-13T06:26:44.562Z,72.10
2018-07-13T06:29:14.140Z,71.70
2018-07-13T06:31:44.182Z,71.20
2018-07-13T06:34:13.499Z,70.40
2018-07-13T06:36:43.298Z,69.80
2018-07-13T06:39:13.338Z,69.40
2018-07-13T06:41:43.358Z,69.30
2018-07-13T06:44:12.857Z,69.10
2018-07-13T06:46:45.552Z,68.60
2018-07-13T06:49:16.677Z,68.60
2018-07-13T06:51:45.942Z,68.40
2018-07-13T06:54:15.076Z,68.00
2018-07-13T06:56:44.330Z,67.50
2018-07-13T06:59:16.912Z,67.00
2018-07-13T07:01:47.128Z,66.40
2018-07-13T07:04:26.014Z,66.00
2018-07-13T07:06:56.599Z,65.50
2018-07-13T07:09:27.504Z,65.20
2018-07-13T07:13:08.875Z,65.20
2018-07-13T07:15:39.029Z,65.40
2018-07-13T07:18:08.351Z,65.60
2018-07-13T07:20:37.768Z,65.40
2018-07-13T07:23:07.257Z,65.30
2018-07-13T07:25:36.601Z,64.80
2018-07-13T07:33:21.276Z,63.10
2018-07-13T07:35:51.480Z,64.80
2018-07-13T07:38:20.754Z,65.50
2018-07-13T07:43:19.602Z,65.90
2018-07-13T07:45:49.909Z,65.90
2018-07-13T07:48:19.227Z,66.00
2018-07-13T07:50:48.319Z,66.30
2018-07-13T07:53:17.558Z,65.90
2018-07-13T07:55:46.514Z,65.30
2018-07-13T07:58:15.768Z,65.40
2018-07-13T08:00:44.813Z,65.00
2018-07-13T08:03:14.343Z,64.50
2018-07-13T08:05:44.078Z,63.90
2018-07-13T08:08:13.452Z,63.60
2018-07-13T08:10:42.691Z,63.10
2018-07-13T08:13:11.838Z,62.50
2018-07-13T08:15:41.134Z,62.00
2018-07-13T08:18:10.724Z,62.00
2018-07-13T08:20:45.513Z,62.10
2018-07-13T08:23:14.974Z,61.70
2018-07-13T08:25:46.578Z,61.80
2018-07-13T08:28:16.912Z,62.20
2018-07-13T08:33:16.846Z,61.90
2018-07-13T08:35:48.247Z,61.70
2018-07-13T08:38:17.304Z,61.40
2018-07-13T08:40:47.093Z,61.00
2018-07-13T08:43:17.090Z,60.60
2018-07-13T08:45:46.179Z,60.00
2018-07-13T08:48:16.051Z,59.80
2018-07-13T08:50:45.845Z,59.70
2018-07-13T08:53:15.736Z,59.60
2018-07-13T08:55:45.123Z,59.50
2018-07-13T08:58:14.540Z,59.30
2018-07-13T09:00:43.783Z,59.00
2018-07-13T09:03:12.842Z,58.50
2018-07-13T09:05:42.062Z,58.20
2018-07-13T09:08:11.320Z,58.10
2018-07-13T09:13:09.974Z,57.80
2018-07-13T09:15:39.634Z,57.40
2018-07-13T09:18:08.778Z,57.50
2018-07-13T09:20:37.938Z,57.20
2018-07-13T09:23:07.769Z,56.50
2018-07-13T09:25:36.646Z,56.10
2018-07-13T09:28:06.470Z,56.10
2018-07-13T09:30:35.583Z,56.10
2018-07-13T09:33:04.827Z,56.00
2018-07-13T09:35:34.262Z,55.90
2018-07-13T09:38:03.966Z,55.40
2018-07-13T09:40:33.459Z,55.00
2018-07-13T09:43:02.618Z,54.80
2018-07-13T09:45:32.218Z,54.80
2018-07-13T09:50:30.724Z,54.10
2018-07-13T09:53:00.051Z,53.30
2018-07-13T09:55:29.387Z,52.10
2018-07-13T09:57:59.289Z,51.90
2018-07-13T10:00:34.163Z,51.80
2018-07-13T10:03:03.954Z,52.10
2018-07-13T10:05:33.683Z,52.10
2018-07-13T10:08:03.264Z,52.00
2018-07-13T10:10:33.022Z,52.00
2018-07-13T10:13:02.256Z,51.40
2018-07-13T10:15:32.729Z,51.10
2018-07-13T10:18:02.049Z,51.10
2018-07-13T10:23:00.512Z,50.80
2018-07-13T10:25:31.477Z,50.80
2018-07-13T10:28:00.784Z,50.80
2018-07-13T10:30:31.095Z,50.40
2018-07-13T10:33:00.318Z,50.10
2018-07-13T10:35:29.561Z,50.50
2018-07-13T10:37:58.534Z,50.70
2018-07-13T10:40:27.866Z,49.90
2018-07-13T10:42:57.468Z,49.80
2018-07-13T10:45:26.613Z,49.60
2018-07-13T10:48:06.603Z,49.30
2018-07-13T10:50:37.038Z,49.70
2018-07-13T10:53:11.811Z,50.00
2018-07-13T10:55:41.993Z,49.90
2018-07-13T10:58:12.255Z,49.70
2018-07-13T11:00:47.164Z,49.70
2018-07-13T11:03:17.523Z,49.80
2018-07-13T11:05:47.477Z,49.70
2018-07-13T11:08:17.778Z,49.30
2018-07-13T11:10:49.556Z,49.00
2018-07-13T11:13:19.414Z,48.70
2018-07-13T11:15:51.378Z,48.30
2018-07-13T11:18:21.733Z,47.80
2018-07-13T11:20:52.170Z,47.70
2018-07-13T11:23:22.760Z,47.60
2018-07-13T11:25:53.604Z,47.20
2018-07-13T11:28:23.783Z,46.90
2018-07-13T11:30:56.912Z,46.40
2018-07-13T11:33:27.426Z,46.00
2018-07-13T11:35:57.500Z,46.00
2018-07-13T11:38:28.727Z,45.50
2018-07-13T11:43:29.674Z,45.10
2018-07-13T11:45:59.739Z,44.90
2018-07-13T11:48:29.071Z,44.90
2018-07-13T11:51:00.255Z,44.70
2018-07-13T11:53:30.509Z,44.70
2018-07-13T11:55:59.585Z,44.70
2018-07-13T11:58:30.478Z,44.40
2018-07-13T12:00:59.698Z,44.10
2018-07-13T12:03:28.935Z,43.70
2018-07-13T12:05:59.232Z,43.50
2018-07-13T12:10:58.879Z,43.40
2018-07-13T12:13:27.902Z,43.10
2018-07-13T12:15:57.852Z,42.70
2018-07-13T12:18:27.920Z,42.40
2018-07-13T12:20:57.767Z,42.20
2018-07-13T12:23:27.624Z,41.40
2018-07-13T12:28:26.916Z,41.10
2018-07-13T12:30:57.633Z,40.60
2018-07-13T12:33:26.872Z,40.50
2018-07-13T12:35:57.062Z,40.70
2018-07-13T12:38:26.514Z,40.70
2018-07-13T12:40:56.370Z,40.80
2018-07-13T12:43:26.234Z,40.70
2018-07-13T12:45:56.643Z,40.70
2018-07-13T12:48:27.238Z,40.60
2018-07-13T12:50:57.459Z,40.50
2018-07-13T12:53:26.030Z,40.00
2018-07-13T12:55:56.564Z,40.40
2018-07-13T12:58:25.941Z,40.10
2018-07-13T13:00:55.779Z,40.30
2018-07-13T13:03:26.163Z,39.90
2018-07-13T13:05:56.783Z,39.30
2018-07-13T13:08:26.299Z,38.90
2018-07-13T13:10:57.176Z,39.10
2018-07-13T13:13:25.967Z,39.10
2018-07-13T13:16:00.196Z,39.20
2018-07-13T13:18:29.724Z,38.90
2018-07-13T13:20:58.376Z,38.80
2018-07-13T13:23:29.409Z,38.80
2018-07-13T13:25:58.951Z,38.70
2018-07-13T13:28:27.583Z,37.90
2018-07-13T13:30:56.456Z,38.00
2018-07-13T13:33:24.926Z,37.80
2018-07-13T13:35:54.146Z,37.70
2018-07-13T13:38:23.437Z,37.60
2018-07-13T13:40:52.209Z,37.90
2018-07-13T13:43:20.519Z,37.20
2018-07-13T13:45:50.265Z,36.70
2018-07-13T13:48:19.005Z,36.00
2018-07-13T13:50:50.915Z,35.50
2018-07-13T13:53:23.385Z,35.50
2018-07-13T13:55:53.607Z,36.20
2018-07-13T13:58:23.957Z,35.40
2018-07-13T14:00:52.426Z,35.30
2018-07-13T14:03:22.195Z,36.00
2018-07-13T14:05:51.103Z,36.00
2018-07-13T14:08:21.138Z,36.20
2018-07-13T14:10:50.922Z,36.30
2018-07-13T14:13:19.705Z,36.60
2018-07-13T14:15:49.684Z,36.80
2018-07-13T14:18:18.634Z,36.70
2018-07-13T14:20:46.957Z,36.80
2018-07-13T14:23:15.425Z,36.90
2018-07-13T14:25:45.312Z,36.20
2018-07-13T14:30:43.515Z,30.80
2018-07-13T14:33:14.076Z,28.00
2018-07-13T14:35:51.050Z,26.60
2018-07-13T14:38:19.971Z,25.80
2018-07-13T14:40:49.079Z,27.00
2018-07-13T14:43:19.031Z,27.50
2018-07-13T14:45:47.307Z,28.30
2018-07-13T14:48:15.559Z,29.00
2018-07-13T14:50:45.256Z,27.80
2018-07-13T14:53:15.353Z,26.10
2018-07-13T14:55:43.632Z,24.90
2018-07-13T14:58:15.431Z,24.00
2018-07-13T15:00:44.600Z,23.00
2018-07-13T15:03:14.067Z,21.90
2018-07-13T15:05:45.600Z,21.30
2018-07-13T15:08:14.928Z,20.50
2018-07-13T15:10:46.682Z,20.30
2018-07-13T15:13:16.211Z,20.40
2018-07-13T15:15:44.521Z,20.30
2018-07-13T15:18:13.386Z,20.00
2018-07-13T15:20:43.255Z,19.60
2018-07-13T15:23:12.708Z,19.70
2018-07-13T15:25:40.968Z,19.60
2018-07-13T15:28:09.827Z,20.30
2018-07-13T15:30:42.159Z,21.20
2018-07-13T15:33:12.235Z,22.30
2018-07-13T15:35:42.146Z,22.70
2018-07-13T15:38:11.886Z,23.00
2018-07-13T15:40:40.980Z,22.60
2018-07-13T15:43:10.452Z,23.20
2018-07-13T15:48:07.352Z,25.10
2018-07-13T15:50:36.223Z,26.50
2018-07-13T15:53:05.147Z,26.60
2018-07-13T15:55:38.786Z,27.20
2018-07-13T15:58:07.515Z,27.80
2018-07-13T16:00:35.731Z,28.20
2018-07-13T16:03:04.267Z,28.70
2018-07-13T16:05:34.356Z,29.20
2018-07-13T16:08:02.584Z,29.50
2018-07-13T16:10:34.801Z,29.90
2018-07-13T16:13:03.086Z,30.00
2018-07-13T16:20:31.181Z,30.90
2018-07-13T16:23:01.639Z,30.40
2018-07-13T16:25:30.752Z,30.20
2018-07-13T16:28:00.516Z,30.00
2018-07-13T16:30:32.162Z,30.50
2018-07-13T16:33:01.159Z,30.00
2018-07-13T16:35:30.268Z,30.20
2018-07-13T16:37:59.843Z,30.00
2018-07-13T16:40:29.354Z,30.10
2018-07-13T16:42:59.190Z,30.00
2018-07-13T16:47:58.891Z,30.60
2018-07-13T16:50:27.178Z,30.60
2018-07-13T16:52:55.403Z,30.30
2018-07-13T16:55:24.551Z,30.40
2018-07-13T16:57:53.418Z,30.40
2018-07-13T17:00:21.686Z,30.60
2018-07-13T17:02:50.593Z,30.50
2018-07-13T17:05:18.928Z,30.20
2018-07-13T17:07:48.567Z,30.50
2018-07-13T17:10:18.234Z,30.70
2018-07-13T17:12:48.050Z,31.10
2018-07-13T17:15:19.120Z,31.20
2018-07-13T17:17:49.320Z,32.00
2018-07-13T17:20:19.900Z,31.50
2018-07-13T17:22:48.574Z,31.50
2018-07-13T17:25:19.023Z,31.50
2018-07-13T17:27:48.430Z,31.50
2018-07-13T17:30:17.376Z,31.70
2018-07-13T17:32:47.054Z,32.50
2018-07-13T17:35:15.926Z,32.10
2018-07-13T17:37:45.902Z,31.90
2018-07-13T17:40:16.831Z,32.00
2018-07-13T17:42:45.698Z,30.70
2018-07-13T17:45:16.074Z,30.90
2018-07-13T17:47:45.110Z,31.30
2018-07-13T17:50:13.895Z,31.80
2018-07-13T17:52:42.301Z,32.30
2018-07-13T17:55:11.373Z,33.10
2018-07-13T17:57:41.643Z,33.50
2018-07-13T18:00:10.647Z,33.70
2018-07-13T18:02:40.028Z,33.00
2018-07-13T18:05:08.445Z,31.70
2018-07-13T18:07:36.854Z,30.30
2018-07-13T18:10:05.253Z,29.30
2018-07-13T18:12:35.399Z,29.10
2018-07-13T18:15:04.531Z,28.80
2018-07-13T18:17:38.553Z,28.60
2018-07-13T18:20:07.085Z,29.10
2018-07-13T18:22:38.866Z,30.00
2018-07-13T18:25:08.735Z,31.40
2018-07-13T18:27:39.145Z,32.60
2018-07-13T18:30:10.343Z,33.60
2018-07-13T18:32:42.866Z,34.40
2018-07-13T18:35:12.060Z,35.10
2018-07-13T18:37:42.536Z,35.90
2018-07-13T18:40:12.926Z,36.60
2018-07-13T18:42:42.583Z,37.30
2018-07-13T18:45:12.442Z,37.80
2018-07-13T18:47:40.719Z,38.20
2018-07-13T18:50:10.391Z,38.60
2018-07-13T18:52:38.615Z,39.10
2018-07-13T18:55:08.653Z,39.60
2018-07-13T18:57:37.822Z,39.90
2018-07-13T19:00:06.160Z,40.30
2018-07-13T19:02:36.076Z,40.60
2018-07-13T19:05:04.771Z,40.80
2018-07-13T19:07:33.839Z,40.90
2018-07-13T19:12:31.705Z,41.40
2018-07-13T19:15:01.101Z,41.70
2018-07-13T19:17:32.749Z,41.90
2018-07-13T19:20:01.919Z,42.10
2018-07-13T19:22:31.384Z,42.30
2018-07-13T19:24:59.837Z,42.40
2018-07-13T19:27:29.577Z,42.60
2018-07-13T19:29:58.871Z,42.80
2018-07-13T19:32:27.103Z,43.10
2018-07-13T19:34:58.065Z,43.30
2018-07-13T19:37:28.267Z,43.50
2018-07-13T19:39:57.186Z,43.70
2018-07-13T19:42:26.741Z,43.80
2018-07-13T19:44:55.510Z,44.50
2018-07-13T19:49:54.561Z,45.50
2018-07-13T19:52:25.054Z,45.20
2018-07-13T19:54:55.456Z,45.40
2018-07-13T19:57:25.740Z,45.60
2018-07-13T19:59:57.761Z,46.20
2018-07-13T20:02:26.790Z,45.80
2018-07-13T20:04:55.250Z,46.10
2018-07-13T20:07:26.420Z,46.20
2018-07-13T20:09:55.197Z,46.50
2018-07-13T20:12:23.516Z,46.40
2018-07-13T20:14:52.986Z,46.90
2018-07-13T20:17:22.042Z,47.10
2018-07-13T20:19:51.115Z,47.40
2018-07-13T20:22:20.710Z,47.60
2018-07-13T20:24:50.091Z,47.60
2018-07-13T20:27:20.090Z,47.80
2018-07-13T20:29:48.585Z,48.10
2018-07-13T20:32:21.201Z,48.20
2018-07-13T20:34:52.046Z,48.30
2018-07-13T20:39:49.391Z,48.60
2018-07-13T20:42:21.971Z,48.90
2018-07-13T20:44:51.130Z,49.30
2018-07-13T20:47:21.833Z,49.30
2018-07-13T20:49:50.664Z,49.50
2018-07-13T20:52:19.354Z,50.20
2018-07-13T20:54:49.722Z,49.70
2018-07-13T20:57:19.679Z,49.80
2018-07-13T21:02:18.188Z,50.20
2018-07-13T21:07:20.682Z,50.40
2018-07-13T21:12:18.183Z,50.70
2018-07-13T21:14:46.961Z,50.90
2018-07-13T21:17:15.710Z,50.80
2018-07-13T21:19:48.456Z,50.90
2018-07-13T21:22:16.866Z,51.00
2018-07-13T21:24:45.114Z,51.10
2018-07-13T21:27:13.813Z,51.30
2018-07-13T21:29:42.918Z,51.30
2018-07-13T21:32:13.507Z,51.50
2018-07-13T21:34:42.716Z,51.60
2018-07-13T21:37:10.959Z,51.50
2018-07-13T21:39:42.288Z,51.70
2018-07-13T21:42:10.651Z,51.80
2018-07-13T21:44:39.559Z,51.90
2018-07-13T21:47:08.679Z,52.00
2018-07-13T21:49:38.786Z,52.10
2018-07-13T21:52:11.997Z,52.40
2018-07-13T21:54:40.841Z,53.20
2018-07-13T21:57:10.459Z,52.70
2018-07-13T21:59:40.198Z,52.90
2018-07-13T22:02:08.813Z,53.00
2018-07-13T22:04:37.494Z,53.20
2018-07-13T22:07:07.140Z,53.20
2018-07-13T22:09:36.517Z,53.40
2018-07-13T22:12:05.075Z,53.40
2018-07-13T22:14:33.416Z,53.60
2018-07-13T22:17:03.388Z,53.80
2018-07-13T22:19:33.097Z,53.80
2018-07-13T22:22:01.653Z,53.80
2018-07-13T22:24:31.491Z,54.00
2018-07-13T22:27:02.397Z,54.10
2018-07-13T22:29:31.696Z,54.20
2018-07-13T22:32:02.219Z,54.30
2018-07-13T22:34:31.775Z,54.60
2018-07-13T22:37:00.801Z,54.80
2018-07-13T22:39:29.854Z,54.90
2018-07-13T22:42:00.087Z,55.00
2018-07-13T22:44:29.748Z,55.30
2018-07-13T22:47:00.090Z,55.30
2018-07-13T22:49:29.335Z,55.40
2018-07-13T22:51:59.263Z,55.60
2018-07-13T22:54:28.966Z,55.80
2018-07-13T22:56:58.187Z,55.90
2018-07-13T22:59:27.327Z,56.10
2018-07-13T23:01:56.043Z,56.20
2018-07-13T23:04:30.642Z,56.40
2018-07-13T23:07:00.013Z,56.50
2018-07-13T23:09:29.799Z,56.50
2018-07-13T23:12:02.169Z,56.60
2018-07-13T23:14:35.068Z,56.70
2018-07-13T23:17:08.899Z,56.80
2018-07-13T23:19:38.547Z,57.00
2018-07-13T23:22:10.783Z,57.20
2018-07-13T23:24:40.286Z,57.10
2018-07-13T23:27:16.877Z,57.20
2018-07-13T23:29:47.855Z,57.30
2018-07-13T23:32:18.963Z,57.40
2018-07-13T23:34:50.172Z,57.50
2018-07-13T23:37:21.378Z,57.60
2018-07-13T23:39:50.744Z,57.70
2018-07-13T23:42:20.922Z,57.80
2018-07-13T23:44:50.049Z,58.00
2018-07-13T23:47:20.107Z,58.00
2018-07-13T23:49:51.219Z,58.20
2018-07-13T23:52:22.680Z,58.30
2018-07-13T23:54:53.316Z,58.40
2018-07-13T23:57:25.020Z,58.60
2018-07-13T23:59:54.627Z,58.70
